Time;durP1;ratioP1;P1;durP2;ratioP2;P2;SDS_P1;SDS_P2;PMS_P1;PMS_P2;Temp;Humidity;BMP_temperature;BMP_pressure;BME280_temperature;BME280_humidity;BME280_pressure;Samples;Min_cycle;Max_cycle;Signal;HPM_P1;HPM_P2
2021/07/05 00:01:20;253314.00;0.84;437.65;88345.00;0.29;153.45;;;;;21.30;1.00;;;;;;2282846;61;1274;-84
2021/07/05 00:03:47;517366.00;1.72;891.73;199483.00;0.66;345.03;;;;;21.40;1.00;;;;;;2270333;61;1040;-84
2021/07/05 00:06:14;183571.00;0.61;317.64;71636.00;0.24;124.59;;;;;21.50;1.00;;;;;;2270430;61;1426;-85
2021/07/05 00:11:11;276691.00;0.92;477.85;120432.00;0.40;208.83;;;;;21.40;1.00;;;;;;2277906;61;1405;-81
2021/07/05 00:13:38;432051.00;1.44;744.91;203370.00;0.68;351.72;;;;;21.40;1.00;;;;;;2269559;61;1008;-84
2021/07/05 00:21:01;166003.00;0.55;287.38;69184.00;0.23;120.35;;;;;21.60;1.00;;;;;;2277704;61;1359;-85
2021/07/05 00:25:55;281905.00;0.94;486.81;110439.00;0.37;191.59;;;;;21.50;1.00;;;;;;2283146;61;1294;-85
2021/07/05 00:28:24;176573.00;0.59;305.59;76106.00;0.25;132.31;;;;;21.50;1.00;;;;;;2274175;61;927;-85
2021/07/05 00:30:50;179310.00;0.60;310.30;70839.00;0.24;123.21;;;;;21.00;1.00;;;;;;2273399;61;988;-84
2021/07/05 00:43:09;178200.00;0.59;308.39;69447.00;0.23;120.80;;;;;21.20;1.00;;;;;;2282058;61;1381;-83
2021/07/05 00:48:05;189086.00;0.63;327.13;67501.00;0.23;117.44;;;;;21.40;1.00;;;;;;2277855;61;1428;-83
2021/07/05 00:50:32;178299.00;0.59;308.56;74322.00;0.25;129.23;;;;;21.30;1.00;;;;;;2266221;61;912;-83
2021/07/05 00:53:02;193812.00;0.65;335.27;87193.00;0.29;151.46;;;;;21.20;1.00;;;;;;2272805;61;988;-82
2021/07/05 00:55:32;169593.00;0.57;293.57;65892.00;0.22;114.66;;;;;21.40;1.00;;;;;;2266194;61;1290;-84
2021/07/05 00:57:58;353307.00;1.18;609.55;73489.00;0.24;127.79;;;;;21.60;1.00;;;;;;2276428;61;1993;-83
2021/07/05 01:02:54;182253.00;0.61;315.37;67253.00;0.22;117.01;;;;;21.50;1.00;;;;;;2282224;61;1393;-82
2021/07/05 01:10:20;217952.00;0.73;376.82;69688.00;0.23;121.22;;;;;21.50;1.00;;;;;;2283049;61;1185;-86
2021/07/05 01:12:48;617058.00;2.06;1063.68;134762.00;0.45;233.54;;;;;21.50;1.00;;;;;;2270874;61;1016;-85
2021/07/05 01:15:18;401620.00;1.34;692.59;67667.00;0.23;117.73;;;;;21.60;1.00;;;;;;2281206;61;1423;-84
2021/07/05 01:20:16;271821.00;0.91;469.47;73749.00;0.25;128.24;;;;;21.90;1.00;;;;;;2278858;61;2041;-83
2021/07/05 01:27:40;660896.00;2.20;1139.49;299259.00;1.00;516.65;;;;;21.80;1.00;;;;;;2279496;61;1310;-85
2021/07/05 01:32:35;306416.00;1.02;528.95;78044.00;0.26;135.66;;;;;21.70;1.00;;;;;;2282832;61;1410;-84
2021/07/05 01:39:58;360696.00;1.20;622.24;90780.00;0.30;157.65;;;;;21.60;1.00;;;;;;2286851;60;1143;-85
2021/07/05 01:44:54;191000.00;0.64;330.43;70830.00;0.24;123.19;;;;;21.70;1.00;;;;;;2278596;61;1423;-85
2021/07/05 01:47:21;237702.00;0.79;410.80;68357.00;0.23;118.92;;;;;21.90;1.00;;;;;;2276752;61;1011;-85
2021/07/05 01:54:44;214439.00;0.71;370.77;69340.00;0.23;120.62;;;;;21.60;1.00;;;;;;2278105;61;1369;-83
2021/07/05 01:57:24;240834.00;0.80;416.19;74615.00;0.25;129.73;;;;;21.50;1.00;;;;;;2276595;61;1938;-83
2021/07/05 01:59:52;169106.00;0.56;292.73;70945.00;0.24;123.39;;;;;21.50;1.00;;;;;;2335608;40;3882;31
2021/07/05 02:07:16;391256.00;1.30;674.77;155511.00;0.52;269.30;;;;;21.80;1.00;;;;;;2286856;60;1189;-85
2021/07/05 02:09:44;349152.00;1.16;602.40;68985.00;0.23;120.01;;;;;21.70;1.00;;;;;;2276589;61;972;-82
2021/07/05 02:12:14;354010.00;1.18;610.75;91564.00;0.31;159.01;;;;;21.30;1.00;;;;;;2395609;39;4053;31
2021/07/05 02:14:42;625971.00;2.09;1079.08;195920.00;0.65;338.90;;;;;21.10;1.00;;;;;;2266191;61;1355;-84
2021/07/05 02:17:11;428092.00;1.43;738.10;151008.00;0.50;261.54;;;;;21.00;1.00;;;;;;2260021;61;2007;-85
2021/07/05 02:19:38;309143.00;1.03;533.64;71981.00;0.24;125.18;;;;;20.70;1.00;;;;;;2254035;61;927;-84
2021/07/05 02:22:06;185431.00;0.62;320.84;75580.00;0.25;131.40;;;;;20.50;1.00;;;;;;2256218;61;1038;-85
2021/07/05 02:31:59;315212.00;1.05;544.07;73180.00;0.24;127.26;;;;;20.30;1.00;;;;;;2278616;61;1242;-83
2021/07/05 02:34:27;310579.00;1.04;536.10;80969.00;0.27;140.71;;;;;20.20;1.00;;;;;;2273141;61;1011;-82
2021/07/05 02:36:54;352125.00;1.17;607.51;70966.00;0.24;123.43;;;;;20.30;1.00;;;;;;2276822;61;1911;-82
2021/07/05 02:46:45;328874.00;1.10;567.55;71930.00;0.24;125.10;;;;;20.80;1.00;;;;;;2277846;61;1430;-83
2021/07/05 02:49:13;304718.00;1.02;526.03;68158.00;0.23;118.58;;;;;21.10;1.00;;;;;;2269451;61;978;-85
2021/07/05 02:51:40;235743.00;0.79;407.43;75694.00;0.25;131.60;;;;;21.20;1.00;;;;;;2269512;61;974;-83
2021/07/05 03:01:30;529901.00;1.77;913.32;90382.00;0.30;156.97;;;;;21.40;1.00;;;;;;2282764;61;1401;-83
2021/07/05 03:03:57;343425.00;1.14;592.56;77424.00;0.26;134.59;;;;;21.40;1.00;;;;;;2270568;61;978;-83
2021/07/05 03:13:49;411917.00;1.37;710.29;135761.00;0.45;235.26;;;;;21.50;1.00;;;;;;2278140;61;1142;-82
2021/07/05 03:16:17;306768.00;1.02;529.55;75187.00;0.25;130.72;;;;;21.60;1.00;;;;;;2266477;61;2006;-82
2021/07/05 03:18:44;281824.00;0.94;486.67;0.00;0.00;0.62;;;;;21.40;1.00;;;;;;2269959;61;1025;-81
2021/07/05 03:21:11;140075.00;0.47;242.70;0.00;0.00;0.62;;;;;21.20;1.00;;;;;;2269667;61;1048;-81
2021/07/05 03:23:37;459146.00;1.53;791.52;63557.00;0.21;110.63;;;;;21.30;1.00;;;;;;2269552;61;1137;-81
2021/07/05 03:31:01;162682.00;0.54;281.66;0.00;0.00;0.62;;;;;21.40;1.00;;;;;;2279345;61;1302;-85
2021/07/05 03:33:28;214654.00;0.72;371.14;0.00;0.00;0.62;;;;;21.30;1.00;;;;;;2266271;61;1042;-83
2021/07/05 03:35:55;114996.00;0.38;199.45;0.00;0.00;0.62;;;;;21.40;1.00;;;;;;2266406;61;1417;-82
2021/07/05 03:38:22;151964.00;0.51;263.19;0.00;0.00;0.62;;;;;21.50;1.00;;;;;;2272700;61;2031;-82
2021/07/05 05:04:35;326571.00;1.09;563.59;72574.00;0.24;126.21;;;;;23.20;1.00;;;;;;2445765;40;3708;31
2021/07/05 05:11:58;605411.00;2.02;1043.56;177528.00;0.59;307.23;;;;;22.40;1.00;;;;;;2515242;40;3450;31
2021/07/05 05:31:40;291989.00;0.97;504.15;74886.00;0.25;130.20;;;;;22.60;1.00;;;;;;2512952;40;3477;31
2021/07/05 05:48:59;446158.00;1.49;769.17;61014.00;0.20;106.23;;;;;23.50;1.00;;;;;;2515071;40;3568;31
2021/07/05 06:03:46;115647.00;0.39;200.57;0.00;0.00;0.62;;;;;23.80;1.00;;;;;;2283608;61;915;-87
2021/07/05 06:16:06;303844.00;1.01;524.53;82077.00;0.27;142.62;;;;;23.80;1.00;;;;;;2451255;39;3594;31
2021/07/05 06:35:49;109509.00;0.37;189.98;0.00;0.00;0.62;;;;;23.10;1.00;;;;;;2515441;40;3452;31
2021/07/05 06:38:16;110154.00;0.37;191.10;13960.00;0.05;24.81;;;;;23.30;1.00;;;;;;2437911;40;4030;31
2021/07/05 07:07:50;85693.00;0.29;148.87;0.00;0.00;0.62;;;;;23.90;1.00;;;;;;2513533;40;3483;31
2021/07/05 07:20:09;148202.00;0.49;256.71;0.00;0.00;0.62;;;;;24.50;1.00;;;;;;2512380;41;3506;31
2021/07/05 09:09:08;0.00;0.00;0.62;0.00;0.00;0.62;;;;;22.70;1.00;;;;;;2279542;61;1298;-88
2021/07/05 09:14:10;0.00;0.00;0.62;0.00;0.00;0.62;;;;;22.70;1.00;;;;;;2279759;61;1295;-84
2021/07/05 09:19:15;20835.00;0.07;36.72;0.00;0.00;0.62;;;;;23.70;1.00;;;;;;2280046;61;1354;-84
2021/07/05 09:24:11;0.00;0.00;0.62;0.00;0.00;0.62;;;;;23.90;1.00;;;;;;2283723;61;1301;-87
2021/07/05 09:29:07;28491.00;0.09;49.97;0.00;0.00;0.62;;;;;23.70;1.00;;;;;;2279319;61;1326;-89
2021/07/05 09:34:03;19459.00;0.06;34.33;0.00;0.00;0.62;;;;;23.70;1.00;;;;;;2283705;61;1294;-88
2021/07/05 09:38:58;11002.00;0.04;19.69;0.00;0.00;0.62;;;;;25.00;1.00;;;;;;2279600;61;1965;-87
2021/07/05 09:41:29;173953.00;0.58;301.08;67436.00;0.22;117.33;;;;;25.20;1.00;;;;;;2277815;61;445;-87
2021/07/05 09:46:57;1233072.00;4.11;2150.13;62289.00;0.21;108.43;;;;;25.80;1.00;;;;;;2283021;54;1399;-88
2021/07/05 09:49:35;1071513.00;3.57;1859.55;87083.00;0.29;151.27;;;;;25.90;1.00;;;;;;2260314;61;1115;-88
2021/07/05 09:52:08;749876.00;2.50;1293.84;8237.00;0.03;14.89;;;;;25.60;1.00;;;;;;2260334;61;895;-88
2021/07/05 09:55:02;793687.00;2.65;1370.12;4616.00;0.02;8.62;;;;;25.60;1.00;;;;;;2252206;61;1259;-87
2021/07/05 09:57:43;479609.00;1.60;826.72;42372.00;0.14;73.99;;;;;25.50;1.00;;;;;;2252109;61;1916;-88
2021/07/05 10:00:23;235361.00;0.78;406.77;19240.00;0.06;33.95;;;;;25.60;1.00;;;;;;2252148;61;1595;-88
2021/07/05 10:03:14;227189.00;0.76;392.71;24441.00;0.08;42.96;;;;;25.50;1.00;;;;;;2248242;61;960;-88
2021/07/05 10:05:45;24397.00;0.08;42.88;0.00;0.00;0.62;;;;;25.50;1.00;;;;;;2232275;62;1355;-88
2021/07/05 10:08:14;99055.00;0.33;171.94;0.00;0.00;0.62;;;;;25.50;1.00;;;;;;2220574;62;1107;-88
2021/07/05 10:10:45;33791.00;0.11;59.14;0.00;0.00;0.62;;;;;25.30;1.00;;;;;;2220415;62;998;-88
2021/07/05 10:13:19;137232.00;0.46;237.80;0.00;0.00;0.62;;;;;25.40;1.00;;;;;;2222146;62;1036;-88
2021/07/05 10:15:50;166741.00;0.56;288.65;0.00;0.00;0.62;;;;;25.00;1.00;;;;;;2224258;62;1435;-88
2021/07/05 10:18:21;345284.00;1.15;595.76;55440.00;0.18;96.59;;;;;25.10;1.00;;;;;;2224531;62;2010;-89
2021/07/05 10:20:49;218796.00;0.73;378.27;0.00;0.00;0.62;;;;;25.10;1.00;;;;;;2224560;62;1798;-89
2021/07/05 10:23:19;169391.00;0.56;293.22;0.00;0.00;0.62;;;;;24.70;1.00;;;;;;2223425;62;1044;-88
2021/07/05 10:25:51;20327.00;0.07;35.84;0.00;0.00;0.62;;;;;24.30;1.00;;;;;;2230092;62;1374;-89
2021/07/05 10:28:22;173756.00;0.58;300.74;0.00;0.00;0.62;;;;;24.80;1.00;;;;;;2253550;61;991;-88
2021/07/05 10:30:52;99594.00;0.33;172.87;0.00;0.00;0.62;;;;;24.70;1.00;;;;;;2260757;61;1168;-88
2021/07/05 10:33:20;229004.00;0.76;395.84;24925.00;0.08;43.80;;;;;25.20;1.00;;;;;;2263701;61;1049;-89
2021/07/05 10:35:59;29440.00;0.10;51.61;0.00;0.00;0.62;;;;;25.50;1.00;;;;;;2263929;61;1485;-88
2021/07/05 10:38:37;0.00;0.00;0.62;0.00;0.00;0.62;;;;;25.40;1.00;;;;;;2256162;61;1919;-89
2021/07/05 10:41:11;0.00;0.00;0.62;0.00;0.00;0.62;;;;;25.50;1.00;;;;;;2255854;61;999;-89
2021/07/05 10:43:52;70556.00;0.24;122.72;0.00;0.00;0.62;;;;;25.50;1.00;;;;;;2266986;61;1123;-88
2021/07/05 10:46:48;0.00;0.00;0.62;0.00;0.00;0.62;;;;;26.00;1.00;;;;;;2271822;61;988;-90
2021/07/05 10:49:45;136484.00;0.45;236.51;0.00;0.00;0.62;;;;;26.00;1.00;;;;;;2263810;61;947;-89
2021/07/05 10:52:17;0.00;0.00;0.62;0.00;0.00;0.62;;;;;25.90;1.00;;;;;;2263196;61;1065;-89
2021/07/05 10:55:04;0.00;0.00;0.62;0.00;0.00;0.62;;;;;26.00;1.00;;;;;;2257270;61;1434;-88
2021/07/05 10:57:57;138486.00;0.46;239.96;0.00;0.00;0.62;;;;;26.10;1.00;;;;;;2259203;61;2002;-89
2021/07/05 11:00:39;58108.00;0.19;101.21;0.00;0.00;0.62;;;;;25.90;1.00;;;;;;2252783;61;1180;-88
2021/07/05 11:03:09;54908.00;0.18;95.67;0.00;0.00;0.62;;;;;26.20;1.00;;;;;;2259922;61;1021;-89
2021/07/05 11:05:44;131818.00;0.44;228.46;0.00;0.00;0.62;;;;;26.50;1.00;;;;;;2259896;61;1458;-90
2021/07/05 11:08:31;5495.00;0.02;10.14;0.00;0.00;0.62;;;;;26.30;1.00;;;;;;2266639;61;1051;-88
2021/07/05 11:11:24;50018.00;0.17;87.22;0.00;0.00;0.62;;;;;26.60;1.00;;;;;;2267454;61;1060;-89
2021/07/05 11:14:20;421806.00;1.41;727.30;19192.00;0.06;33.87;;;;;26.10;1.00;;;;;;2267222;61;1747;-88
2021/07/05 11:17:08;54071.00;0.18;94.23;0.00;0.00;0.62;;;;;26.20;1.00;;;;;;2267847;61;1695;-88
2021/07/05 11:19:59;13925.00;0.05;24.75;0.00;0.00;0.62;;;;;25.70;1.00;;;;;;2267923;61;1968;-89
2021/07/05 11:22:31;225722.00;0.75;390.19;0.00;0.00;0.62;;;;;24.90;1.00;;;;;;2267988;61;1550;-89
2021/07/05 11:25:23;377792.00;1.26;651.63;39010.00;0.13;68.18;;;;;24.80;1.00;;;;;;2267915;61;1674;-89
2021/07/05 11:27:52;636518.00;2.12;1097.32;140344.00;0.47;243.16;;;;;24.90;1.00;;;;;;2268160;61;1025;-89
2021/07/05 11:30:40;41282.00;0.14;72.11;0.00;0.00;0.62;;;;;25.00;1.00;;;;;;2256136;61;980;-90
2021/07/05 11:33:25;101226.00;0.34;175.69;0.00;0.00;0.62;;;;;24.70;1.00;;;;;;2244254;61;989;-91
2021/07/05 11:35:58;669786.00;2.23;1154.88;21033.00;0.07;37.06;;;;;25.00;1.00;;;;;;2251401;61;1289;-89
2021/07/05 11:38:43;827604.00;2.76;1429.31;2680.00;0.01;5.27;;;;;25.30;1.00;;;;;;2252137;61;1999;-90
2021/07/05 11:41:36;664357.00;2.21;1145.48;8027.00;0.03;14.53;;;;;25.60;1.00;;;;;;2255272;61;964;-89
2021/07/05 11:44:06;151555.00;0.51;262.49;0.00;0.00;0.62;;;;;26.10;1.00;;;;;;2251594;61;1397;-89
2021/07/05 11:46:50;35615.00;0.12;62.30;0.00;0.00;0.62;;;;;26.30;1.00;;;;;;2251674;61;985;-90
2021/07/05 11:49:25;47710.00;0.16;83.23;0.00;0.00;0.62;;;;;26.80;1.00;;;;;;2255099;61;1089;-89
2021/07/05 11:52:02;104971.00;0.35;182.15;0.00;0.00;0.62;;;;;26.20;1.00;;;;;;2265354;61;1081;-89
2021/07/05 11:54:33;393160.00;1.31;678.05;25396.00;0.08;44.61;;;;;26.20;1.00;;;;;;2273357;61;1346;-89
2021/07/05 11:57:03;267265.00;0.89;461.64;5179.00;0.02;9.60;;;;;26.80;1.00;;;;;;2267627;61;1053;-89
2021/07/05 11:59:32;242212.00;0.81;418.56;0.00;0.00;0.62;;;;;27.00;1.00;;;;;;2265004;61;1932;-87
2021/07/05 12:02:05;23373.00;0.08;41.11;0.00;0.00;0.62;;;;;26.60;1.00;;;;;;2269396;61;1200;-88
2021/07/05 12:04:37;194506.00;0.65;336.47;12259.00;0.04;21.86;;;;;26.90;1.00;;;;;;2258459;61;1299;-89
2021/07/05 12:07:13;633799.00;2.11;1092.62;0.00;0.00;0.62;;;;;27.40;1.00;;;;;;2259106;61;1728;-88
2021/07/05 12:09:43;507311.00;1.69;874.41;0.00;0.00;0.62;;;;;27.20;1.00;;;;;;2259253;61;1842;-88
2021/07/05 12:12:19;583708.00;1.95;1006.10;26123.00;0.09;45.87;;;;;27.00;1.00;;;;;;2259690;61;1159;-88
2021/07/05 12:14:50;285933.00;0.95;493.74;5547.00;0.02;10.23;;;;;26.70;1.00;;;;;;2255975;61;1305;-89
2021/07/05 12:17:23;696418.00;2.32;1201.03;0.00;0.00;0.62;;;;;26.50;1.00;;;;;;2260997;61;1113;-89
2021/07/05 12:19:52;499993.00;1.67;861.81;0.00;0.00;0.62;;;;;26.60;1.00;;;;;;2267222;61;2015;-88
2021/07/05 12:22:22;757756.00;2.53;1307.55;90662.00;0.30;157.45;;;;;26.50;1.00;;;;;;2271854;61;1835;-88
2021/07/05 12:24:51;313287.00;1.04;540.76;0.00;0.00;0.62;;;;;26.60;1.00;;;;;;2273077;61;1414;-89
2021/07/05 12:27:20;253099.00;0.84;437.28;0.00;0.00;0.62;;;;;26.40;1.00;;;;;;2279916;61;1174;-90
2021/07/05 12:29:52;405282.00;1.35;698.89;0.00;0.00;0.62;;;;;25.70;1.00;;;;;;2280343;61;1045;-89
2021/07/05 12:32:21;232497.00;0.77;401.84;0.00;0.00;0.62;;;;;25.80;1.00;;;;;;2280321;61;1142;-88
2021/07/05 12:34:56;426038.00;1.42;734.57;0.00;0.00;0.62;;;;;25.40;1.00;;;;;;2279436;61;1280;-88
2021/07/05 12:37:31;377497.00;1.26;651.12;0.00;0.00;0.62;;;;;25.70;1.00;;;;;;2280376;61;1014;-89
2021/07/05 12:40:02;140672.00;0.47;243.73;0.00;0.00;0.62;;;;;25.50;1.00;;;;;;2280560;61;1989;-88
2021/07/05 12:42:35;393721.00;1.31;679.01;0.00;0.00;0.62;;;;;24.60;1.00;;;;;;2280701;61;1745;-88
2021/07/05 12:45:08;166915.00;0.56;288.95;0.00;0.00;0.62;;;;;24.30;1.00;;;;;;2280576;61;1395;-89
2021/07/05 12:47:45;219600.00;0.73;379.66;0.00;0.00;0.62;;;;;24.80;1.00;;;;;;2280106;61;1049;-89
2021/07/05 12:50:15;176512.00;0.59;305.48;0.00;0.00;0.62;;;;;24.70;1.00;;;;;;2271969;61;1028;-88
2021/07/05 12:52:57;100166.00;0.33;173.86;0.00;0.00;0.62;;;;;24.40;1.00;;;;;;2272119;61;1144;-88
2021/07/05 12:55:24;165092.00;0.55;285.81;0.00;0.00;0.62;;;;;24.50;1.00;;;;;;2271898;61;1399;-88
2021/07/05 12:57:53;237223.00;0.79;409.97;0.00;0.00;0.62;;;;;24.50;1.00;;;;;;2271732;61;1998;-88
2021/07/05 13:00:22;188678.00;0.63;326.43;0.00;0.00;0.62;;;;;24.40;1.00;;;;;;2271676;61;1107;-89
2021/07/05 13:02:50;256625.00;0.86;443.34;0.00;0.00;0.62;;;;;24.80;1.00;;;;;;2271825;61;1052;-89
2021/07/05 13:05:22;295348.00;0.98;509.92;0.00;0.00;0.62;;;;;24.80;1.00;;;;;;2272093;61;1409;-88
2021/07/05 13:07:55;364258.00;1.21;628.37;0.00;0.00;0.62;;;;;24.80;1.00;;;;;;2275139;61;1081;-89
2021/07/05 13:10:26;120213.00;0.40;208.45;0.00;0.00;0.62;;;;;25.00;1.00;;;;;;2281011;61;1114;-89
2021/07/05 13:12:55;219647.00;0.73;379.74;0.00;0.00;0.62;;;;;25.10;1.00;;;;;;2280946;61;1114;-89
2021/07/05 13:15:23;194991.00;0.65;337.30;0.00;0.00;0.62;;;;;24.90;1.00;;;;;;2280947;61;1323;-88
2021/07/05 13:17:50;226743.00;0.76;391.95;0.00;0.00;0.62;;;;;24.80;1.00;;;;;;2281051;61;1045;-89
2021/07/05 13:20:20;528561.00;1.76;911.01;19306.00;0.06;34.07;;;;;24.90;1.00;;;;;;2281015;61;1661;-90
2021/07/05 13:22:56;296656.00;0.99;512.17;0.00;0.00;0.62;;;;;24.80;1.00;;;;;;2280996;61;1054;-89
2021/07/05 13:25:25;344745.00;1.15;594.83;0.00;0.00;0.62;;;;;25.00;1.00;;;;;;2281018;61;1446;-89
2021/07/05 13:27:53;287021.00;0.96;495.61;0.00;0.00;0.62;;;;;25.10;1.00;;;;;;2280948;61;1736;-88
2021/07/05 13:30:23;514733.00;1.72;887.19;70277.00;0.23;122.24;;;;;25.30;1.00;;;;;;2281004;61;1040;-89
2021/07/05 13:32:57;436549.00;1.46;752.65;78843.00;0.26;137.04;;;;;25.20;1.00;;;;;;2268259;61;1069;-89
2021/07/05 13:35:31;148394.00;0.49;257.04;0.00;0.00;0.62;;;;;25.20;1.00;;;;;;2268285;61;1381;-89
2021/07/05 13:38:03;393244.00;1.31;678.19;73312.00;0.24;127.48;;;;;25.50;1.00;;;;;;2268257;61;1923;-88
2021/07/05 13:40:38;391596.00;1.31;675.36;86256.00;0.29;149.84;;;;;25.30;1.00;;;;;;2268064;61;1015;-91
2021/07/05 13:43:07;390428.00;1.30;673.35;0.00;0.00;0.62;;;;;25.10;1.00;;;;;;2268296;61;968;-91
2021/07/05 13:45:44;369624.00;1.23;637.59;0.00;0.00;0.62;;;;;25.60;1.00;;;;;;2256070;61;1341;-91
2021/07/05 13:48:13;519641.00;1.73;895.65;0.00;0.00;0.62;;;;;25.80;1.00;;;;;;2256077;61;1729;-91
2021/07/05 13:50:42;330163.00;1.10;569.77;0.00;0.00;0.62;;;;;25.80;1.00;;;;;;2260914;61;1029;-90
2021/07/05 13:53:25;354169.00;1.18;611.03;32195.00;0.11;56.38;;;;;25.40;1.00;;;;;;2255990;61;963;-91
2021/07/05 13:55:55;487488.00;1.62;840.29;0.00;0.00;0.62;;;;;25.20;1.00;;;;;;2237216;61;1164363;-91
2021/07/05 13:58:24;466897.00;1.56;804.85;0.00;0.00;0.62;;;;;25.10;1.00;;;;;;2256295;61;1990;-91
2021/07/05 14:00:56;300045.00;1.00;518.00;0.00;0.00;0.62;;;;;25.30;1.00;;;;;;2256239;61;970;-91
2021/07/05 14:03:24;455292.00;1.52;784.89;0.00;0.00;0.62;;;;;24.90;1.00;;;;;;2260971;61;1652;-91
2021/07/05 14:05:57;420242.00;1.40;724.61;33882.00;0.11;59.30;;;;;24.80;1.00;;;;;;2268233;61;1411;-89
2021/07/05 14:08:30;220286.00;0.73;380.84;34765.00;0.12;60.83;;;;;24.70;1.00;;;;;;2259080;61;991;-91
2021/07/05 14:11:00;140772.00;0.47;243.90;27460.00;0.09;48.19;;;;;24.40;1.00;;;;;;2273152;61;1104;-91
2021/07/05 14:13:33;41568.00;0.14;72.60;0.00;0.00;0.62;;;;;24.00;1.00;;;;;;2280795;61;1804;-91
2021/07/05 14:16:23;113376.00;0.38;196.66;0.00;0.00;0.62;;;;;24.20;1.00;;;;;;2280667;61;1334;-92
2021/07/05 14:18:51;163584.00;0.55;283.21;0.00;0.00;0.62;;;;;24.90;1.00;;;;;;2280823;61;1973;-91
2021/07/05 14:21:30;169932.00;0.57;294.15;0.00;0.00;0.62;;;;;25.10;1.00;;;;;;2280845;61;1674;-91
2021/07/05 14:24:05;0.00;0.00;0.62;0.00;0.00;0.62;;;;;25.00;1.00;;;;;;2280827;61;1429;-91
2021/07/05 14:26:38;171091.00;0.57;296.15;0.00;0.00;0.62;;;;;25.30;1.00;;;;;;2280915;61;1658;-91
2021/07/05 14:29:07;347608.00;1.16;599.75;86.00;0.00;0.77;;;;;26.10;1.00;;;;;;2280783;61;1638;-88
2021/07/05 14:32:08;333417.00;1.11;575.36;0.00;0.00;0.62;;;;;26.70;1.00;;;;;;2280732;61;1787;-88
2021/07/05 14:34:40;304938.00;1.02;526.41;0.00;0.00;0.62;;;;;26.20;1.00;;;;;;2280677;61;1597;-91
2021/07/05 14:37:23;348896.00;1.16;601.96;74614.00;0.25;129.73;;;;;26.00;1.00;;;;;;2280824;61;1587;-90
2021/07/05 14:39:53;190179.00;0.63;329.02;0.00;0.00;0.62;;;;;25.30;1.00;;;;;;2280894;61;1982;-91
2021/07/05 14:42:20;131391.00;0.44;227.73;0.00;0.00;0.62;;;;;25.50;1.00;;;;;;2280828;61;1758;-90
2021/07/05 14:44:50;137840.00;0.46;238.85;0.00;0.00;0.62;;;;;25.50;1.00;;;;;;2280773;61;1357;-91
2021/07/05 14:47:18;115258.00;0.38;199.90;0.00;0.00;0.62;;;;;25.30;1.00;;;;;;2280800;61;1759;-91
2021/07/05 14:49:45;20557.00;0.07;36.23;0.00;0.00;0.62;;;;;25.30;1.00;;;;;;2273757;61;962;-92
2021/07/05 14:52:14;117238208.00;390.79;65273140.00;0.00;0.00;0.62;;;;;25.80;1.00;;;;;;2280921;61;1031;-91
2021/07/05 14:54:41;246062.00;0.82;425.18;66294.00;0.22;115.36;;;;;26.10;1.00;;;;;;2268067;61;1361;-91
2021/07/05 14:57:15;207901.00;0.69;359.52;34084.00;0.11;59.65;;;;;26.30;1.00;;;;;;2268215;61;971;-89
2021/07/05 14:59:42;174982.00;0.58;302.85;57211.00;0.19;99.66;;;;;26.60;1.00;;;;;;2268277;61;1907;-89
2021/07/05 15:02:09;339913.00;1.13;586.52;70970.00;0.24;123.44;;;;;26.90;1.00;;;;;;2260128;61;935;-90
2021/07/05 15:04:36;456768.00;1.52;787.42;70671.00;0.24;122.92;;;;;27.30;1.00;;;;;;2260047;61;1684;-88
2021/07/05 15:07:03;240969.00;0.80;416.42;70279.00;0.23;122.24;;;;;27.60;1.00;;;;;;2253595;61;1100;-88
2021/07/05 15:09:32;49894.00;0.17;87.00;0.00;0.00;0.62;;;;;27.50;1.00;;;;;;2252163;61;1009;-92
2021/07/05 15:12:11;52966.00;0.18;92.32;0.00;0.00;0.62;;;;;27.30;1.00;;;;;;2245479;61;969;-89
2021/07/05 15:14:38;378726.00;1.26;653.24;64946.00;0.22;113.03;;;;;27.30;1.00;;;;;;2248068;61;1427;-90
2021/07/05 15:17:06;295211.00;0.98;509.69;62856.00;0.21;109.41;;;;;26.90;1.00;;;;;;2248127;61;1031;-89
2021/07/05 15:19:33;187045.00;0.62;323.62;67480.00;0.22;117.41;;;;;26.80;1.00;;;;;;2250730;61;1985;-90
2021/07/05 15:22:04;419913.00;1.40;724.04;69052.00;0.23;120.12;;;;;26.60;1.00;;;;;;2252033;61;953;-91
2021/07/05 15:24:33;377376.00;1.26;650.91;92003.00;0.31;159.77;;;;;26.60;1.00;;;;;;2245476;61;1345;-91
2021/07/05 15:27:00;424756.00;1.42;732.37;130744.00;0.44;226.61;;;;;26.10;1.00;;;;;;2253010;61;1169;-90
2021/07/05 15:29:27;322945.00;1.08;557.36;71143.00;0.24;123.74;;;;;25.90;1.00;;;;;;2257518;61;974;-92
2021/07/05 15:31:54;171265.00;0.57;296.45;71431.00;0.24;124.23;;;;;25.60;1.00;;;;;;2264052;61;1099;-92
2021/07/05 15:34:21;263596.00;0.88;455.33;68780.00;0.23;119.65;;;;;25.30;1.00;;;;;;2263967;61;1377;-92
2021/07/05 15:36:48;376280.00;1.25;649.03;67587.00;0.23;117.59;;;;;25.30;1.00;;;;;;2264018;61;1035;-90
2021/07/05 15:39:15;78972.00;0.26;137.26;0.00;0.00;0.62;;;;;25.10;1.00;;;;;;2268069;61;1996;-92
2021/07/05 15:41:44;170503.00;0.57;295.13;0.00;0.00;0.62;;;;;24.90;1.00;;;;;;2280774;61;995;-90
2021/07/05 15:44:12;121406.00;0.40;210.51;0.00;0.00;0.62;;;;;25.30;1.00;;;;;;2280641;61;1441;-90
2021/07/05 15:46:41;167606.00;0.56;290.14;38608.00;0.13;67.48;;;;;25.30;1.00;;;;;;2280659;61;1103;-93
2021/07/05 17:36:51;97103.00;0.32;168.57;0.00;0.00;0.62;;;;;26.20;1.00;;;;;;2271274;61;896;-91
2021/07/05 17:46:50;20628.00;0.07;36.36;0.00;0.00;0.62;;;;;26.50;1.00;;;;;;2270994;61;948;-91
2021/07/05 20:11:33;31674.00;0.11;55.48;0.00;0.00;0.62;;;;;24.50;1.00;;;;;;2270664;61;1336;-90
2021/07/05 20:36:42;16145.00;0.05;28.59;0.00;0.00;0.62;;;;;24.10;1.00;;;;;;2271210;61;937;-91
2021/07/05 20:44:19;5305.00;0.02;9.81;0.00;0.00;0.62;;;;;23.80;1.00;;;;;;2271695;61;1332;-91
2021/07/05 20:54:26;35721.00;0.12;62.48;0.00;0.00;0.62;;;;;23.90;1.00;;;;;;2271422;61;1336;-93
2021/07/05 21:55:29;101775.00;0.34;176.64;6549.00;0.02;11.97;;;;;23.30;1.00;;;;;;2270467;61;1320;-89
2021/07/05 21:57:55;43084.00;0.14;75.22;0.00;0.00;0.62;;;;;23.10;1.00;;;;;;2268897;61;1108;-90
2021/07/05 22:00:26;290851.00;0.97;502.19;112802.00;0.38;195.66;;;;;23.00;1.00;;;;;;2268808;61;1916;-89
2021/07/05 22:02:54;121569.00;0.41;210.79;38823.00;0.13;67.85;;;;;23.20;1.00;;;;;;2268739;61;910;-88
2021/07/05 22:05:21;0.00;0.00;0.62;0.00;0.00;0.62;;;;;23.20;1.00;;;;;;2268397;61;1020;-91
2021/07/05 22:07:49;0.00;0.00;0.62;0.00;0.00;0.62;;;;;23.20;1.00;;;;;;2268751;61;986;-90
2021/07/05 22:10:18;0.00;0.00;0.62;0.00;0.00;0.62;;;;;23.10;1.00;;;;;;2268556;61;1348;-90
2021/07/05 22:12:47;0.00;0.00;0.62;0.00;0.00;0.62;;;;;23.00;1.00;;;;;;2268865;61;1163;-90
2021/07/05 22:15:14;0.00;0.00;0.62;0.00;0.00;0.62;;;;;23.00;1.00;;;;;;2268847;61;1028;-90
2021/07/05 22:17:41;0.00;0.00;0.62;0.00;0.00;0.62;;;;;23.10;1.00;;;;;;2268840;61;941;-89
2021/07/05 22:20:09;0.00;0.00;0.62;0.00;0.00;0.62;;;;;23.10;1.00;;;;;;2268765;61;1915;-89
2021/07/05 22:22:36;0.00;0.00;0.62;0.00;0.00;0.62;;;;;23.10;1.00;;;;;;2268467;61;1048;-89
2021/07/05 22:25:05;0.00;0.00;0.62;0.00;0.00;0.62;;;;;23.10;1.00;;;;;;2268787;61;869;-90
2021/07/05 22:27:32;0.00;0.00;0.62;0.00;0.00;0.62;;;;;23.10;1.00;;;;;;2268752;61;1607;-90
2021/07/05 22:30:00;0.00;0.00;0.62;0.00;0.00;0.62;;;;;23.00;1.00;;;;;;2268752;61;1310;-88
2021/07/05 22:32:27;0.00;0.00;0.62;0.00;0.00;0.62;;;;;23.10;1.00;;;;;;2268726;61;1136;-90
2021/07/05 22:34:54;130778.00;0.44;226.67;0.00;0.00;0.62;;;;;22.90;1.00;;;;;;2268363;61;1052;-90
2021/07/05 22:37:21;0.00;0.00;0.62;0.00;0.00;0.62;;;;;22.80;1.00;;;;;;2268594;61;1021;-89
2021/07/05 22:39:48;0.00;0.00;0.62;0.00;0.00;0.62;;;;;22.80;1.00;;;;;;2260176;61;1924;-90
2021/07/05 22:42:14;117292.00;0.39;203.41;0.00;0.00;0.62;;;;;22.70;1.00;;;;;;2260303;61;1104;-88
2021/07/05 22:44:41;0.00;0.00;0.62;0.00;0.00;0.62;;;;;22.90;1.00;;;;;;2260220;61;1693;-90
2021/07/05 22:47:10;0.00;0.00;0.62;0.00;0.00;0.62;;;;;23.00;1.00;;;;;;2260233;61;1064;-88
2021/07/05 22:49:37;125963.00;0.42;218.37;0.00;0.00;0.62;;;;;22.90;1.00;;;;;;2260260;61;1395;-90
2021/07/05 22:52:05;0.00;0.00;0.62;0.00;0.00;0.62;;;;;22.80;1.00;;;;;;2260167;61;1057;-90